createdAt,value
2023-05-15T00:01:33.976Z,55.40
2023-05-15T00:04:02.476Z,59.92
2023-05-15T00:06:30.616Z,57.13
2023-05-15T00:08:58.761Z,54.85
2023-05-15T00:11:28.145Z,56.33
2023-05-15T00:13:57.764Z,54.83
2023-05-15T00:16:26.429Z,55.30
2023-05-15T00:18:54.862Z,55.47
2023-05-15T00:21:23.385Z,54.30
2023-05-15T00:23:56.081Z,55.30
2023-05-15T00:26:25.331Z,54.85
2023-05-15T00:28:54.197Z,54.70
2023-05-15T00:31:26.727Z,54.22
2023-05-15T00:33:55.148Z,54.10
2023-05-15T00:36:25.746Z,54.58
2023-05-15T00:38:54.086Z,53.97
2023-05-15T00:41:24.433Z,53.60
2023-05-15T00:43:53.783Z,53.38
2023-05-15T00:46:28.461Z,55.28
2023-05-15T00:49:01.694Z,53.15
2023-05-15T00:51:29.946Z,53.58
2023-05-15T00:53:59.589Z,53.30
2023-05-15T00:56:31.750Z,52.70
2023-05-15T00:59:01.124Z,52.67
2023-05-15T01:01:34.201Z,54.78
2023-05-15T01:04:03.776Z,51.30
2023-05-15T01:06:35.414Z,51.58
2023-05-15T01:09:05.666Z,52.17
2023-05-15T01:11:37.197Z,50.97
2023-05-15T01:14:06.505Z,51.50
2023-05-15T01:16:41.711Z,53.50
2023-05-15T01:19:10.251Z,53.47
2023-05-15T01:22:11.963Z,52.70
2023-05-15T01:24:59.766Z,51.90
2023-05-15T01:27:31.619Z,54.25
2023-05-15T01:30:09.263Z,52.00
2023-05-15T01:32:44.866Z,52.67
2023-05-15T01:35:17.676Z,53.05
2023-05-15T01:37:51.186Z,54.20
2023-05-15T01:40:22.637Z,53.58
2023-05-15T01:42:56.902Z,54.35
2023-05-15T01:45:26.834Z,52.78
2023-05-15T01:47:57.122Z,53.00
2023-05-15T01:50:26.324Z,52.05
2023-05-15T01:52:59.938Z,53.78
2023-05-15T01:55:29.615Z,54.97
2023-05-15T01:58:05.136Z,55.13
2023-05-15T02:00:35.791Z,54.63
2023-05-15T02:03:06.521Z,53.35
2023-05-15T02:05:35.943Z,51.60
2023-05-15T02:08:05.481Z,50.97
2023-05-15T02:10:38.441Z,50.60
2023-05-15T02:13:11.338Z,50.58
2023-05-15T02:15:40.194Z,50.53
2023-05-15T02:18:08.513Z,49.85
2023-05-15T02:20:38.102Z,47.47
2023-05-15T02:23:06.372Z,46.92
2023-05-15T02:25:43.495Z,47.55
2023-05-15T02:28:23.795Z,47.05
2023-05-15T02:30:58.903Z,48.00
2023-05-15T02:33:32.918Z,46.78
2023-05-15T02:36:06.412Z,48.45
2023-05-15T02:38:39.149Z,48.05
2023-05-15T02:41:11.169Z,48.58
2023-05-15T02:43:43.631Z,50.53
2023-05-15T02:46:13.494Z,49.28
2023-05-15T02:48:43.558Z,50.00
2023-05-15T02:51:14.968Z,50.97
2023-05-15T02:53:44.583Z,52.00
2023-05-15T02:56:13.005Z,51.03
2023-05-15T02:58:43.683Z,49.65
2023-05-15T03:01:12.663Z,49.92
2023-05-15T03:03:41.094Z,51.58
2023-05-15T03:06:09.333Z,52.33
2023-05-15T03:08:37.620Z,52.90
2023-05-15T03:11:06.212Z,70.97
2023-05-15T03:13:34.710Z,53.95
2023-05-15T03:16:04.447Z,52.85
2023-05-15T03:18:32.906Z,55.85
2023-05-15T03:21:02.623Z,52.95
2023-05-15T03:23:32.130Z,52.08
2023-05-15T03:26:00.381Z,53.28
2023-05-15T03:28:28.808Z,51.35
2023-05-15T03:30:57.178Z,51.67
2023-05-15T03:33:26.930Z,50.50
2023-05-15T03:35:55.081Z,53.92
2023-05-15T03:38:23.420Z,52.08
2023-05-15T03:40:51.730Z,52.30
2023-05-15T03:43:20.042Z,52.42
2023-05-15T03:45:48.232Z,54.20
2023-05-15T03:48:16.621Z,57.30
2023-05-15T03:50:47.412Z,60.80
2023-05-15T03:53:15.621Z,57.17
2023-05-15T03:55:43.881Z,61.38
2023-05-15T03:58:12.148Z,62.00
2023-05-15T04:00:40.390Z,59.30
2023-05-15T04:03:08.735Z,59.30
2023-05-15T04:05:39.810Z,60.05
2023-05-15T04:08:10.184Z,60.70
2023-05-15T04:10:38.491Z,60.92
2023-05-15T04:13:07.372Z,58.40
2023-05-15T04:15:37.171Z,57.83
2023-05-15T04:18:05.456Z,56.55
2023-05-15T04:20:34.368Z,58.58
2023-05-15T04:23:04.116Z,57.78
2023-05-15T04:25:33.831Z,56.67
2023-05-15T04:28:02.740Z,56.75
2023-05-15T04:30:38.595Z,55.10
2023-05-15T04:33:07.130Z,53.67
2023-05-15T04:35:35.906Z,54.50
2023-05-15T04:38:04.346Z,50.33
2023-05-15T04:40:34.070Z,51.25
2023-05-15T04:43:04.167Z,48.08
2023-05-15T04:45:44.554Z,51.05
2023-05-15T04:48:15.464Z,52.08
2023-05-15T04:50:43.547Z,50.63
2023-05-15T04:53:11.969Z,51.33
2023-05-15T04:55:41.694Z,50.85
2023-05-15T04:58:10.579Z,49.83
2023-05-15T05:00:39.152Z,50.75
2023-05-15T05:03:07.492Z,51.15
2023-05-15T05:05:41.010Z,51.53
2023-05-15T05:08:09.056Z,52.40
2023-05-15T05:10:37.079Z,52.83
2023-05-15T05:13:06.788Z,51.67
2023-05-15T05:15:34.992Z,54.15
2023-05-15T05:18:03.319Z,52.22
2023-05-15T05:20:31.724Z,54.05
2023-05-15T05:22:59.922Z,54.33
2023-05-15T05:25:28.089Z,53.05
2023-05-15T05:27:56.189Z,54.15
2023-05-15T05:30:26.037Z,52.35
2023-05-15T05:32:54.165Z,55.55
2023-05-15T05:35:24.480Z,55.30
2023-05-15T05:37:52.969Z,52.88
2023-05-15T05:40:21.389Z,53.30
2023-05-15T05:42:49.666Z,55.15
2023-05-15T05:45:21.130Z,53.55
2023-05-15T05:47:51.034Z,56.58
2023-05-15T05:50:22.071Z,55.63
2023-05-15T05:52:50.577Z,54.08
2023-05-15T05:55:18.878Z,56.30
2023-05-15T05:57:47.523Z,56.63
2023-05-15T06:00:16.825Z,58.47
2023-05-15T06:02:47.958Z,54.60
2023-05-15T06:05:19.996Z,54.92
2023-05-15T06:07:57.699Z,53.83
2023-05-15T06:10:26.507Z,56.38
2023-05-15T06:12:57.337Z,56.97
2023-05-15T06:15:27.566Z,55.88
2023-05-15T06:17:57.991Z,57.30
2023-05-15T06:20:31.607Z,56.90
2023-05-15T06:23:04.546Z,54.75
2023-05-15T06:25:34.484Z,53.92
2023-05-15T06:28:03.278Z,55.95
2023-05-15T06:30:33.967Z,56.38
2023-05-15T06:33:05.718Z,55.97
2023-05-15T06:35:36.981Z,55.53
2023-05-15T06:38:05.297Z,56.95
2023-05-15T06:40:33.848Z,56.30
2023-05-15T06:43:06.311Z,55.90
2023-05-15T06:45:37.069Z,56.80
2023-05-15T06:48:05.899Z,57.45
2023-05-15T06:50:39.122Z,57.80
2023-05-15T06:53:07.447Z,56.63
2023-05-15T06:55:40.822Z,58.63
2023-05-15T06:58:12.057Z,60.17
2023-05-15T07:00:40.466Z,57.70
2023-05-15T07:03:13.672Z,56.60
2023-05-15T07:05:48.878Z,56.88
2023-05-15T07:08:25.851Z,58.00
2023-05-15T07:10:54.132Z,57.25
2023-05-15T07:13:25.562Z,59.22
2023-05-15T07:15:59.278Z,57.85
2023-05-15T07:18:31.344Z,58.40
2023-05-15T07:21:03.445Z,60.38
2023-05-15T07:23:34.434Z,55.70
2023-05-15T07:26:03.798Z,58.28
2023-05-15T07:28:32.583Z,57.85
2023-05-15T07:31:07.381Z,57.08
2023-05-15T07:33:40.558Z,59.58
2023-05-15T07:36:15.423Z,60.75
2023-05-15T07:38:55.314Z,59.25
2023-05-15T07:41:23.697Z,62.35
2023-05-15T07:43:54.778Z,62.13
2023-05-15T07:46:30.045Z,60.42
2023-05-15T07:48:58.227Z,61.10
2023-05-15T07:51:27.912Z,63.22
2023-05-15T07:53:58.607Z,63.33
2023-05-15T07:56:27.151Z,62.92
2023-05-15T07:58:59.720Z,63.22
2023-05-15T08:01:29.993Z,62.90
2023-05-15T08:04:01.463Z,66.20
2023-05-15T08:06:36.934Z,66.20
2023-05-15T08:09:07.836Z,65.13
2023-05-15T08:11:39.176Z,64.28
2023-05-15T08:14:19.627Z,63.80
2023-05-15T08:16:57.752Z,63.28
2023-05-15T08:19:35.802Z,68.45
2023-05-15T08:22:06.434Z,64.55
2023-05-15T08:24:38.960Z,65.22
2023-05-15T08:27:07.677Z,66.00
2023-05-15T08:29:38.662Z,68.57
2023-05-15T08:32:10.213Z,67.68
2023-05-15T08:34:38.995Z,69.30
2023-05-15T08:37:13.072Z,76.80
2023-05-15T08:39:41.530Z,82.15
2023-05-15T08:42:22.856Z,94.07
2023-05-15T08:44:55.165Z,82.00
2023-05-15T08:47:27.677Z,78.30
2023-05-15T08:50:18.134Z,83.00
2023-05-15T08:52:54.823Z,78.75
2023-05-15T08:55:25.901Z,74.40
2023-05-15T08:57:55.956Z,76.95
2023-05-15T09:00:26.182Z,75.53
2023-05-15T09:02:56.175Z,68.70
2023-05-15T09:05:32.441Z,67.28
2023-05-15T09:10:58.029Z,67.45
2023-05-15T09:13:30.803Z,65.70
2023-05-15T09:16:10.377Z,65.45
2023-05-15T09:18:53.039Z,69.38
2023-05-15T09:21:32.539Z,64.97
2023-05-15T09:24:28.692Z,62.78
2023-05-15T09:27:14.218Z,59.75
2023-05-15T09:29:47.470Z,60.17
2023-05-15T09:32:19.168Z,60.97
2023-05-15T09:34:48.133Z,59.75
2023-05-15T09:37:35.331Z,60.80
2023-05-15T09:40:28.494Z,58.72
2023-05-15T09:42:56.665Z,58.65
2023-05-15T09:45:31.655Z,58.65
2023-05-15T09:48:12.159Z,59.80
2023-05-15T09:51:00.182Z,58.75
2023-05-15T09:53:37.668Z,58.72
2023-05-15T09:56:13.637Z,59.03
2023-05-15T09:58:56.298Z,59.03
2023-05-15T10:01:29.282Z,58.10
2023-05-15T10:04:01.678Z,58.40
2023-05-15T10:06:36.762Z,57.33
2023-05-15T10:09:06.316Z,59.35
2023-05-15T10:11:46.161Z,58.15
2023-05-15T10:14:15.331Z,59.15
2023-05-15T10:16:43.857Z,57.72
2023-05-15T10:19:14.614Z,57.95
2023-05-15T10:21:43.863Z,58.53
2023-05-15T10:24:14.601Z,58.85
2023-05-15T10:26:51.952Z,56.72
2023-05-15T10:29:26.025Z,56.92
2023-05-15T10:32:01.260Z,55.22
2023-05-15T10:34:32.289Z,54.28
2023-05-15T10:37:18.706Z,53.17
2023-05-15T10:39:49.102Z,50.33
2023-05-15T10:42:19.511Z,48.05
2023-05-15T10:44:49.396Z,48.65
2023-05-15T10:47:17.753Z,49.03
2023-05-15T10:49:48.476Z,48.15
2023-05-15T10:52:17.507Z,47.47
2023-05-15T10:54:46.181Z,47.38
2023-05-15T10:57:15.973Z,46.30
2023-05-15T11:00:01.440Z,48.47
2023-05-15T11:02:31.744Z,49.22
2023-05-15T11:05:03.230Z,49.30
2023-05-15T11:07:31.362Z,49.50
2023-05-15T11:10:03.168Z,51.40
2023-05-15T11:12:58.792Z,50.75
2023-05-15T11:15:43.293Z,54.03
2023-05-15T11:18:25.074Z,53.83
2023-05-15T11:21:11.749Z,54.85
2023-05-15T11:23:46.639Z,55.38
2023-05-15T11:26:18.641Z,53.20
2023-05-15T11:28:47.713Z,52.53
2023-05-15T11:31:31.852Z,51.15
2023-05-15T11:34:06.291Z,51.75
2023-05-15T11:36:37.771Z,52.05
2023-05-15T11:39:12.201Z,51.67
2023-05-15T11:41:41.382Z,51.55
2023-05-15T11:44:10.736Z,51.92
2023-05-15T11:46:56.919Z,52.67
2023-05-15T11:49:26.509Z,53.05
2023-05-15T11:51:56.454Z,51.70
2023-05-15T11:54:26.279Z,52.50
2023-05-15T11:56:58.756Z,52.28
2023-05-15T11:59:28.470Z,52.60
2023-05-15T12:02:08.511Z,51.60
2023-05-15T12:04:37.029Z,51.88
2023-05-15T12:07:22.005Z,54.00
2023-05-15T12:09:55.516Z,52.33
2023-05-15T12:12:27.016Z,52.80
2023-05-15T12:14:59.917Z,51.70
2023-05-15T12:17:38.036Z,51.50
2023-05-15T12:20:12.955Z,50.50
2023-05-15T12:22:42.343Z,49.42
2023-05-15T12:25:11.700Z,48.95
2023-05-15T12:27:47.827Z,47.80
2023-05-15T12:30:21.992Z,50.03
2023-05-15T12:33:08.007Z,50.65
2023-05-15T12:35:38.964Z,51.97
2023-05-15T12:38:09.764Z,51.67
2023-05-15T12:40:40.808Z,52.28
2023-05-15T12:43:09.607Z,51.78
2023-05-15T12:45:40.035Z,52.33
2023-05-15T12:48:15.664Z,53.85
2023-05-15T12:50:46.153Z,52.97
2023-05-15T12:53:15.795Z,51.50
2023-05-15T12:55:46.552Z,51.28
2023-05-15T12:58:21.378Z,52.65
2023-05-15T13:00:51.078Z,51.65
2023-05-15T13:03:23.050Z,50.30
2023-05-15T13:05:53.637Z,51.72
2023-05-15T13:08:22.214Z,52.80
2023-05-15T13:10:58.178Z,53.20
2023-05-15T13:13:44.328Z,54.63
2023-05-15T13:16:23.259Z,50.83
2023-05-15T13:18:55.065Z,50.00
2023-05-15T13:21:23.742Z,51.90
2023-05-15T13:23:52.704Z,50.58
2023-05-15T13:26:21.134Z,50.05
2023-05-15T13:28:50.705Z,49.92
2023-05-15T13:31:20.443Z,50.08
2023-05-15T13:33:49.113Z,49.65
2023-05-15T13:36:18.896Z,49.47
2023-05-15T13:38:47.107Z,49.50
2023-05-15T13:41:17.326Z,49.92
2023-05-15T13:43:45.530Z,50.70
2023-05-15T13:46:19.326Z,49.95
2023-05-15T13:48:50.381Z,49.58
2023-05-15T13:51:21.418Z,49.75
2023-05-15T13:53:50.093Z,50.47
2023-05-15T13:56:18.382Z,50.22
2023-05-15T13:58:47.099Z,49.20
2023-05-15T14:01:15.361Z,48.28
2023-05-15T14:03:45.826Z,49.42
2023-05-15T14:06:29.088Z,49.88
2023-05-15T14:09:01.726Z,48.10
2023-05-15T14:11:38.109Z,49.35
2023-05-15T14:14:08.827Z,50.13
2023-05-15T14:16:37.401Z,49.72
2023-05-15T14:19:05.610Z,49.63
2023-05-15T14:21:38.999Z,48.67
2023-05-15T14:24:08.258Z,48.75
2023-05-15T14:26:36.745Z,49.03
2023-05-15T14:29:05.345Z,50.50
2023-05-15T14:31:33.988Z,50.83
2023-05-15T14:34:02.240Z,48.03
2023-05-15T14:36:30.917Z,48.80
2023-05-15T14:39:00.839Z,48.55
2023-05-15T14:41:29.256Z,48.00
2023-05-15T14:43:57.610Z,48.30
2023-05-15T14:46:26.230Z,49.47
2023-05-15T14:48:57.455Z,46.90
2023-05-15T14:51:28.715Z,49.75
2023-05-15T14:53:57.261Z,49.38
2023-05-15T14:56:29.484Z,49.05
2023-05-15T14:58:57.659Z,50.45
2023-05-15T15:01:26.466Z,49.00
2023-05-15T15:03:54.928Z,48.67
2023-05-15T15:06:23.533Z,46.88
2023-05-15T15:08:51.974Z,47.30
2023-05-15T15:11:20.179Z,47.53
2023-05-15T15:13:49.999Z,48.22
2023-05-15T15:16:18.317Z,48.75
2023-05-15T15:18:48.081Z,49.47
2023-05-15T15:21:16.450Z,50.33
2023-05-15T15:23:45.990Z,45.63
2023-05-15T15:26:14.488Z,46.85
2023-05-15T15:28:42.672Z,45.80
2023-05-15T15:31:14.613Z,46.85
2023-05-15T15:33:42.947Z,46.15
2023-05-15T15:36:11.135Z,47.88
2023-05-15T15:38:43.847Z,45.35
2023-05-15T15:41:12.374Z,46.15
2023-05-15T15:43:41.021Z,45.08
2023-05-15T15:46:12.087Z,43.63
2023-05-15T15:48:45.804Z,42.55
2023-05-15T15:51:15.376Z,41.53
2023-05-15T15:53:46.733Z,41.70
2023-05-15T15:56:22.763Z,42.50
2023-05-15T15:59:02.678Z,43.22
2023-05-15T16:01:37.053Z,42.22
2023-05-15T16:04:08.329Z,42.08
2023-05-15T16:06:46.835Z,46.35
2023-05-15T16:09:25.245Z,41.55
2023-05-15T16:11:54.053Z,41.55
2023-05-15T16:14:41.768Z,46.25
2023-05-15T16:17:10.141Z,43.25
2023-05-15T16:19:48.698Z,42.03
2023-05-15T16:22:19.426Z,41.17
2023-05-15T16:24:56.284Z,40.85
2023-05-15T16:27:24.839Z,41.97
2023-05-15T16:29:53.015Z,42.72
2023-05-15T16:32:21.496Z,42.00
2023-05-15T16:34:57.072Z,42.53
2023-05-15T16:37:25.617Z,45.08
2023-05-15T16:39:54.715Z,42.97
2023-05-15T16:42:25.986Z,41.55
2023-05-15T16:45:01.038Z,51.92
2023-05-15T16:47:29.594Z,43.60
2023-05-15T16:50:06.554Z,41.97
2023-05-15T16:52:44.683Z,43.15
2023-05-15T16:55:25.056Z,43.55
2023-05-15T16:57:56.515Z,43.40
2023-05-15T17:00:25.301Z,43.25
2023-05-15T17:02:53.763Z,45.00
2023-05-15T17:05:26.585Z,43.17
2023-05-15T17:07:54.929Z,42.08
2023-05-15T17:10:27.000Z,43.45
2023-05-15T17:12:58.732Z,42.50
2023-05-15T17:15:30.333Z,42.92
2023-05-15T17:18:01.687Z,43.03
2023-05-15T17:20:35.048Z,42.05
2023-05-15T17:23:08.378Z,41.17
2023-05-15T17:25:42.041Z,42.85
2023-05-15T17:28:10.646Z,42.00
2023-05-15T17:30:45.709Z,42.05
2023-05-15T17:33:14.372Z,42.13
2023-05-15T17:35:47.021Z,41.75
2023-05-15T17:38:23.042Z,41.67
2023-05-15T17:40:59.133Z,42.67
2023-05-15T17:43:27.512Z,43.35
2023-05-15T17:46:09.808Z,42.13
2023-05-15T17:48:50.320Z,41.80
2023-05-15T17:51:20.297Z,43.58
2023-05-15T17:53:56.918Z,43.15
2023-05-15T17:56:41.822Z,42.58
2023-05-15T17:59:15.023Z,43.08
2023-05-15T18:02:01.504Z,43.53
2023-05-15T18:04:32.129Z,45.67
2023-05-15T18:07:20.229Z,44.17
2023-05-15T18:10:06.345Z,50.05
2023-05-15T18:12:38.553Z,45.55
2023-05-15T18:15:14.897Z,43.65
2023-05-15T18:17:46.154Z,44.78
2023-05-15T18:20:22.193Z,44.08
2023-05-15T18:22:57.891Z,43.00
2023-05-15T18:25:37.165Z,42.75
2023-05-15T18:28:14.365Z,43.45
2023-05-15T18:30:43.004Z,42.78
2023-05-15T18:33:13.452Z,43.03
2023-05-15T18:35:44.582Z,44.88
2023-05-15T18:38:14.472Z,45.15
2023-05-15T18:40:48.118Z,44.50
2023-05-15T18:43:17.947Z,43.88
2023-05-15T18:45:46.589Z,44.72
2023-05-15T18:48:15.226Z,44.78
2023-05-15T18:50:45.179Z,44.70
2023-05-15T18:53:18.918Z,47.95
2023-05-15T18:55:54.110Z,44.20
2023-05-15T18:58:24.808Z,44.70
2023-05-15T19:00:56.652Z,44.45
2023-05-15T19:03:28.919Z,42.42
2023-05-15T19:06:00.177Z,44.42
2023-05-15T19:08:45.331Z,44.67
2023-05-15T19:11:23.013Z,42.72
2023-05-15T19:13:51.887Z,43.20
2023-05-15T19:16:38.774Z,43.75
2023-05-15T19:19:08.423Z,42.67
2023-05-15T19:21:46.709Z,42.38
2023-05-15T19:24:16.577Z,43.10
2023-05-15T19:30:07.225Z,48.22
2023-05-15T19:40:07.376Z,43.50
2023-05-15T19:43:10.231Z,43.53
2023-05-15T19:47:31.651Z,44.28
2023-05-15T19:49:50.426Z,43.78
2023-05-15T19:52:22.097Z,46.13
2023-05-15T19:59:20.297Z,43.75
2023-05-15T20:01:55.914Z,42.45
2023-05-15T20:05:08.317Z,44.65
2023-05-15T20:08:22.471Z,44.88
2023-05-15T20:14:32.272Z,42.70
2023-05-15T20:17:20.083Z,42.72
2023-05-15T20:20:08.990Z,43.00
2023-05-15T20:23:13.841Z,43.70
2023-05-15T20:28:45.614Z,44.58
2023-05-15T20:35:05.986Z,42.67
2023-05-15T20:38:51.265Z,43.88
2023-05-15T20:41:54.664Z,43.85
2023-05-15T20:47:32.926Z,41.78
2023-05-15T20:53:46.958Z,42.53
2023-05-15T20:57:06.888Z,43.30
2023-05-15T21:00:35.599Z,45.85
2023-05-15T21:03:26.793Z,44.10
2023-05-15T21:10:00.414Z,44.53
2023-05-15T21:16:01.272Z,46.42
2023-05-15T21:21:54.592Z,44.03
2023-05-15T21:25:05.670Z,44.55
2023-05-15T21:28:05.255Z,43.85
2023-05-15T21:36:53.469Z,43.60
2023-05-15T21:39:54.380Z,44.95
2023-05-15T21:42:37.560Z,46.33
2023-05-15T21:45:29.283Z,46.13
2023-05-15T21:48:13.903Z,44.03
2023-05-15T21:51:11.739Z,44.10
2023-05-15T21:53:45.990Z,44.92
2023-05-15T21:56:51.110Z,44.47
2023-05-15T21:59:37.656Z,44.47
2023-05-15T22:02:29.847Z,44.65
2023-05-15T22:05:15.321Z,44.83
2023-05-15T22:08:01.531Z,45.13
2023-05-15T22:10:53.873Z,45.10
2023-05-15T22:13:42.288Z,47.55
2023-05-15T22:20:23.339Z,45.40
2023-05-15T22:23:19.620Z,43.83
2023-05-15T22:26:16.102Z,44.85
2023-05-15T22:32:46.191Z,43.63
2023-05-15T22:35:27.808Z,44.42
2023-05-15T22:38:18.321Z,43.20
2023-05-15T22:41:23.815Z,41.80
2023-05-15T22:44:22.877Z,43.97
2023-05-15T22:47:01.918Z,43.25
2023-05-15T22:49:47.939Z,43.88
2023-05-15T22:52:47.145Z,44.10
2023-05-15T22:55:30.616Z,43.17
2023-05-15T22:58:08.297Z,44.15
2023-05-15T23:00:52.985Z,44.38
2023-05-15T23:03:35.184Z,43.92
2023-05-15T23:06:30.296Z,43.03
2023-05-15T23:09:05.190Z,44.03
2023-05-15T23:12:05.337Z,45.05
2023-05-15T23:14:41.152Z,44.40
2023-05-15T23:17:23.117Z,44.83
2023-05-15T23:20:09.905Z,44.00
2023-05-15T23:22:52.484Z,44.75
2023-05-15T23:25:38.404Z,44.60
2023-05-15T23:28:15.152Z,43.53
2023-05-15T23:30:47.866Z,43.70
2023-05-15T23:33:31.340Z,41.80
2023-05-15T23:36:12.959Z,44.28
2023-05-15T23:38:50.562Z,43.75
2023-05-15T23:41:50.813Z,42.80
2023-05-15T23:44:28.856Z,42.05
2023-05-15T23:47:05.672Z,42.95
2023-05-15T23:49:55.666Z,42.25
2023-05-15T23:52:28.304Z,45.75
2023-05-15T23:55:05.455Z,45.80
2023-05-15T23:57:38.232Z,44.17
